עמוד ראשי
METAR-TAF:

METAR-TAF

שדות תעופה :

סנטיאגו דה צ'ילה, צ'ילה

קו רוחב: 33-23S, קו אורך: 070-47W, גובה: 475מטר

תצפית מזג אוויר נוכחית

הדו"ח נערך לפני 25דקות, בשעה 09:00 UTC
רוח רגועה
טמפרטורת 3 צלסיוס
לחות 100%
לחץ 1021 hPa
ראות: 6000מטר

METAR: SCEL 270900Z 00000KT 6000 NSC 03/03 Q1021 NOSIG

זמן: 05:25 (09:25 UTC)

תחזית

הדו"ח נערך לפני 3 שעות ו 26דקות, בשעה 05:59 UTC
תחזית בתוקף מ 27 ב 06 UTC עד 28 ב 06 UTC
רוח 4קשר מכיוון צפון
ראות: 7000מטר
יעשה מ
27 ב 07 UTC עד 27 ב 08 UTC
ראות: 4000מטר
אד
זמנית מ -
27 ב 07 UTC עד 27 ב 12 UTC
רוח 2קשר עם כיוונים משתנים
ראות: 1500מטר
אד
יעשה מ
27 ב 13 UTC עד 27 ב 15 UTC
ראות: 8000מטר
יעשה מ
27 ב 16 UTC עד 27 ב 18 UTC
רוח 8קשר מכיוון דרום
ראות 10 קילומטר או יותר
ללא עננים שבסיסם נמוך מ 5000 רגל או קומולונימבוס
יעשה מ
28 ב 01 UTC עד 28 ב 03 UTC
רוח 4קשר מכיוון צפון

TAF: SCEL 270559Z 2706/2806 01004KT 7000 NSC TX17/2719Z TN04/2709Z BECMG 2707/2708 4000 BR TEMPO 2707/2712 VRB02KT 1500 BR BECMG 2713/2715 8000 BECMG 2716/2718 18008KT CAVOK BECMG 2801/2803 36004KT

תצפיות ותחזיות מזג אוויר לגבי יותר מ- 4,000 שדות תעופה ברחבי העולם. דוחות METAR ו- TAF.

התחנות הזמינות מסומנות בנקודות צהובות ואדומות על גבי המפה.

העבר את העכבר לנקודה הצבעונית על מנת לראות את שם התחנה.

לאחר מכן, לחץ כדי לראות את תוכן ואת תחזיות מזג האוויר.

כדי לשנות את המפה: לחץ על הכפתורים הירוקים עם הפלוס השחור כדי להתקרב; על הכפתור הירוק עם המקף כדי להתרחק; או בחיצים הירוקים למפות סמוכות.


METAR-TAF: